Alexander, North Dakota
Current Conditions -  °F | °C
As of 3:52 PM on Friday 28 Nov 2014 (Local Time) from KISN Reporting Station
Clear Clear  
Wind Chill: 25°   Ceiling: Unl
Heat Index: 25°   Visibility: 10mi
Dew Point: 19°   Wind: 3mph
Humidity: 78%   Direction: 150°SSE
Pressure: 29.47"   Gusts: NA
Location:  47.84°N, 103.64°W
Report Text: KISN 282152Z AUTO 15003KT 10SM CLR M04/M07 A2947 RMK AO2 SLP009 T10391072
Loading
Personal Weather Stations






























Interactive Weather Map New forecast layout! Learn more

10-Day Weather Forecast

Advertisements
Track Severe Weather on mobile